createdAt,value
2023-04-30T00:01:01.128Z,22.40
2023-04-30T00:03:28.219Z,22.80
2023-04-30T00:05:55.315Z,22.92
2023-04-30T00:08:22.415Z,24.63
2023-04-30T00:10:49.457Z,23.67
2023-04-30T00:13:16.385Z,22.73
2023-04-30T00:15:43.497Z,25.15
2023-04-30T00:18:10.870Z,23.35
2023-04-30T00:20:37.794Z,26.35
2023-04-30T00:23:04.748Z,20.35
2023-04-30T00:25:31.651Z,23.73
2023-04-30T00:27:58.632Z,23.33
2023-04-30T00:30:25.732Z,24.40
2023-04-30T00:32:52.703Z,25.17
2023-04-30T00:35:19.638Z,22.98
2023-04-30T00:37:47.162Z,26.40
2023-04-30T00:40:14.130Z,24.85
2023-04-30T00:42:41.133Z,22.20
2023-04-30T00:45:08.849Z,27.52
2023-04-30T00:47:36.627Z,25.38
2023-04-30T00:50:03.649Z,27.98
2023-04-30T00:52:30.771Z,28.08
2023-04-30T00:54:57.946Z,25.98
2023-04-30T00:57:26.668Z,23.17
2023-04-30T00:59:54.997Z,24.05
2023-04-30T01:02:23.002Z,22.67
2023-04-30T01:04:51.989Z,25.17
2023-04-30T01:07:19.170Z,23.95
2023-04-30T01:09:46.287Z,23.58
2023-04-30T01:12:21.004Z,26.38
2023-04-30T01:15:09.041Z,25.30
2023-04-30T01:18:22.887Z,24.05
2023-04-30T01:20:54.578Z,27.10
2023-04-30T01:23:55.448Z,27.67
2023-04-30T01:26:44.456Z,25.15
2023-04-30T01:29:13.115Z,25.95
2023-04-30T01:31:44.284Z,29.00
2023-04-30T01:34:11.873Z,26.63
2023-04-30T01:36:57.058Z,28.50
2023-04-30T01:39:54.892Z,26.85
2023-04-30T01:42:27.972Z,27.00
2023-04-30T01:45:25.477Z,28.30
2023-04-30T01:48:13.184Z,28.52
2023-04-30T01:50:53.292Z,28.17
2023-04-30T01:53:24.667Z,27.85
2023-04-30T01:55:57.746Z,29.75
2023-04-30T01:58:26.025Z,27.90
2023-04-30T02:00:53.916Z,28.30
2023-04-30T02:03:21.035Z,27.05
2023-04-30T02:05:48.488Z,29.13
2023-04-30T02:08:15.431Z,29.92
2023-04-30T02:10:42.504Z,28.85
2023-04-30T02:13:09.519Z,29.52
2023-04-30T02:15:36.611Z,28.85
2023-04-30T02:18:03.692Z,25.83
2023-04-30T02:20:30.803Z,31.02
2023-04-30T02:22:57.952Z,27.15
2023-04-30T02:25:26.288Z,29.63
2023-04-30T02:27:53.378Z,25.95
2023-04-30T02:30:20.958Z,30.25
2023-04-30T02:32:48.340Z,26.83
2023-04-30T02:35:15.572Z,29.27
2023-04-30T02:37:42.760Z,27.85
2023-04-30T02:40:10.622Z,26.98
2023-04-30T02:42:37.911Z,27.05
2023-04-30T02:45:05.284Z,27.48
2023-04-30T02:47:32.213Z,26.95
2023-04-30T02:49:59.169Z,30.90
2023-04-30T02:52:26.744Z,28.83
2023-04-30T02:54:53.742Z,26.40
2023-04-30T02:57:20.834Z,29.08
2023-04-30T02:59:47.844Z,29.30
2023-04-30T03:02:14.867Z,26.38
2023-04-30T03:04:41.865Z,29.85
2023-04-30T03:07:08.834Z,27.20
2023-04-30T03:09:36.829Z,28.40
2023-04-30T03:12:03.970Z,31.77
2023-04-30T03:14:31.040Z,29.35
2023-04-30T03:16:57.973Z,29.60
2023-04-30T03:19:25.145Z,28.90
2023-04-30T03:21:52.625Z,28.88
2023-04-30T03:24:19.786Z,31.38
2023-04-30T03:26:47.266Z,29.23
2023-04-30T03:29:14.285Z,29.80
2023-04-30T03:31:41.251Z,29.52
2023-04-30T03:34:08.645Z,34.40
2023-04-30T03:36:36.068Z,29.75
2023-04-30T03:39:03.965Z,28.95
2023-04-30T03:41:30.990Z,32.25
2023-04-30T03:43:57.873Z,27.75
2023-04-30T03:46:24.893Z,27.92
2023-04-30T03:48:52.011Z,30.23
2023-04-30T03:51:20.918Z,31.05
2023-04-30T03:53:47.846Z,30.45
2023-04-30T03:56:15.028Z,29.05
2023-04-30T03:58:42.816Z,28.83
2023-04-30T04:01:09.926Z,29.55
2023-04-30T04:03:37.702Z,28.70
2023-04-30T04:06:05.173Z,28.65
2023-04-30T04:08:32.664Z,32.20
2023-04-30T04:10:59.797Z,28.98
2023-04-30T04:13:26.758Z,29.45
2023-04-30T04:15:53.775Z,30.73
2023-04-30T04:18:21.612Z,31.63
2023-04-30T04:20:48.519Z,34.17
2023-04-30T04:23:16.859Z,31.05
2023-04-30T04:25:44.388Z,30.90
2023-04-30T04:28:12.483Z,32.35
2023-04-30T04:30:40.880Z,31.10
2023-04-30T04:33:08.619Z,30.40
2023-04-30T04:35:35.820Z,32.25
2023-04-30T04:38:02.974Z,31.90
2023-04-30T04:40:31.681Z,32.03
2023-04-30T04:42:58.922Z,31.50
2023-04-30T04:45:26.079Z,29.63
2023-04-30T04:47:54.050Z,34.53
2023-04-30T04:50:21.639Z,30.17
2023-04-30T04:52:48.770Z,29.05
2023-04-30T04:55:16.184Z,27.50
2023-04-30T04:57:43.297Z,31.77
2023-04-30T05:00:11.806Z,31.73
2023-04-30T05:02:38.874Z,32.28
2023-04-30T05:05:06.973Z,28.05
2023-04-30T05:07:35.045Z,29.48
2023-04-30T05:10:02.690Z,32.17
2023-04-30T05:12:30.611Z,30.30
2023-04-30T05:14:57.577Z,31.90
2023-04-30T05:17:24.685Z,29.98
2023-04-30T05:19:52.468Z,30.02
2023-04-30T05:22:19.361Z,28.52
2023-04-30T05:24:46.289Z,29.40
2023-04-30T05:27:13.221Z,29.10
2023-04-30T05:29:40.129Z,29.85
2023-04-30T05:32:08.090Z,29.63
2023-04-30T05:34:35.510Z,28.95
2023-04-30T05:37:03.777Z,29.30
2023-04-30T05:39:30.741Z,29.77
2023-04-30T05:41:57.712Z,31.73
2023-04-30T05:44:24.695Z,31.20
2023-04-30T05:46:51.677Z,29.80
2023-04-30T05:49:18.669Z,40.72
2023-04-30T05:51:45.759Z,62.85
2023-04-30T05:54:12.765Z,32.13
2023-04-30T05:56:39.744Z,32.42
2023-04-30T05:59:06.670Z,34.40
2023-04-30T06:01:33.825Z,31.98
2023-04-30T06:04:01.300Z,34.60
2023-04-30T06:06:28.331Z,32.15
2023-04-30T06:08:55.379Z,34.17
2023-04-30T06:11:22.694Z,33.55
2023-04-30T06:13:49.806Z,33.83
2023-04-30T06:16:16.828Z,38.28
2023-04-30T06:18:44.423Z,34.13
2023-04-30T06:21:11.430Z,33.95
2023-04-30T06:23:38.343Z,37.45
2023-04-30T06:26:05.463Z,34.35
2023-04-30T06:28:32.432Z,36.33
2023-04-30T06:30:59.702Z,32.22
2023-04-30T06:33:26.617Z,32.28
2023-04-30T06:35:55.607Z,33.28
2023-04-30T06:38:22.749Z,35.65
2023-04-30T06:40:49.858Z,33.38
2023-04-30T06:43:17.564Z,34.97
2023-04-30T06:45:44.556Z,36.28
2023-04-30T06:48:11.524Z,38.08
2023-04-30T06:50:45.050Z,36.83
2023-04-30T06:53:12.633Z,33.40
2023-04-30T06:55:40.950Z,32.17
2023-04-30T06:58:08.154Z,36.58
2023-04-30T07:00:35.369Z,34.25
2023-04-30T07:03:03.847Z,34.05
2023-04-30T07:05:31.532Z,34.63
2023-04-30T07:08:01.399Z,31.70
2023-04-30T07:10:28.368Z,33.63
2023-04-30T07:12:55.505Z,31.58
2023-04-30T07:15:22.637Z,70.30
2023-04-30T07:17:49.748Z,39.83
2023-04-30T07:20:16.944Z,28.30
2023-04-30T07:22:45.867Z,26.27
2023-04-30T07:25:13.814Z,29.13
2023-04-30T07:27:40.997Z,29.27
2023-04-30T07:30:12.191Z,26.27
2023-04-30T07:32:41.081Z,33.28
2023-04-30T07:35:08.483Z,30.95
2023-04-30T07:37:36.122Z,31.00
2023-04-30T07:40:04.304Z,26.00
2023-04-30T07:42:31.417Z,26.63
2023-04-30T07:44:58.419Z,27.73
2023-04-30T07:47:25.699Z,26.58
2023-04-30T07:49:53.296Z,24.23
2023-04-30T07:52:20.571Z,24.95
2023-04-30T07:54:47.493Z,25.70
2023-04-30T07:57:14.436Z,24.38
2023-04-30T07:59:41.449Z,24.35
2023-04-30T08:02:09.424Z,24.45
2023-04-30T08:04:36.432Z,26.17
2023-04-30T08:07:04.614Z,23.85
2023-04-30T08:09:31.719Z,26.30
2023-04-30T08:11:58.710Z,26.58
2023-04-30T08:14:25.785Z,27.40
2023-04-30T08:16:52.933Z,25.30
2023-04-30T08:19:19.890Z,25.60
2023-04-30T08:21:47.096Z,26.17
2023-04-30T08:24:13.997Z,25.58
2023-04-30T08:26:40.925Z,26.63
2023-04-30T08:29:08.401Z,24.02
2023-04-30T08:31:35.999Z,27.02
2023-04-30T08:34:03.017Z,25.52
2023-04-30T08:36:29.882Z,25.20
2023-04-30T08:38:57.611Z,25.70
2023-04-30T08:41:26.924Z,27.95
2023-04-30T08:43:54.165Z,27.92
2023-04-30T08:46:23.232Z,24.48
2023-04-30T08:48:50.400Z,21.92
2023-04-30T08:51:17.394Z,21.30
2023-04-30T08:56:22.256Z,21.38
2023-04-30T08:58:50.405Z,22.42
2023-04-30T09:01:17.707Z,25.27
2023-04-30T09:03:45.040Z,25.50
2023-04-30T09:06:16.501Z,26.92
2023-04-30T09:08:48.183Z,23.67
2023-04-30T09:11:26.672Z,25.05
2023-04-30T09:13:57.181Z,25.63
2023-04-30T09:16:26.041Z,26.33
2023-04-30T09:18:53.498Z,24.52
2023-04-30T09:21:34.244Z,23.02
2023-04-30T09:24:03.355Z,20.95
2023-04-30T09:26:39.403Z,23.90
2023-04-30T09:29:10.403Z,21.70
2023-04-30T09:31:39.150Z,20.20
2023-04-30T09:34:06.778Z,19.42
2023-04-30T09:36:34.345Z,19.95
2023-04-30T09:39:15.803Z,19.13
2023-04-30T09:41:43.777Z,22.85
2023-04-30T09:44:30.158Z,22.67
2023-04-30T09:46:58.687Z,23.33
2023-04-30T09:49:27.413Z,25.88
2023-04-30T09:51:59.142Z,19.73
2023-04-30T09:54:28.832Z,22.70
2023-04-30T09:56:58.455Z,25.85
2023-04-30T09:59:35.275Z,26.73
2023-04-30T10:02:04.836Z,20.23
2023-04-30T10:04:39.493Z,23.08
2023-04-30T10:07:10.840Z,19.97
2023-04-30T10:09:57.395Z,21.67
2023-04-30T10:12:48.154Z,19.60
2023-04-30T10:15:25.356Z,20.88
2023-04-30T10:18:04.138Z,24.35
2023-04-30T10:20:34.624Z,22.98
2023-04-30T10:23:01.649Z,21.27
2023-04-30T10:25:29.292Z,22.52
2023-04-30T10:27:56.941Z,20.48
2023-04-30T10:30:24.231Z,17.95
2023-04-30T10:33:15.684Z,23.00
2023-04-30T10:36:04.291Z,18.80
2023-04-30T10:38:32.971Z,17.33
2023-04-30T10:41:04.564Z,17.35
2023-04-30T10:43:31.654Z,17.92
2023-04-30T10:45:59.321Z,16.10
2023-04-30T10:48:27.406Z,15.70
2023-04-30T10:51:01.480Z,15.18
2023-04-30T10:53:32.080Z,16.10
2023-04-30T10:56:08.815Z,15.90
2023-04-30T10:58:38.563Z,16.88
2023-04-30T11:01:09.044Z,18.05
2023-04-30T11:03:37.389Z,17.95
2023-04-30T11:06:15.169Z,18.40
2023-04-30T11:08:46.241Z,15.88
2023-04-30T11:11:21.062Z,17.38
2023-04-30T11:13:59.663Z,24.15
2023-04-30T11:16:31.559Z,37.58
2023-04-30T11:19:11.752Z,15.48
2023-04-30T11:21:42.835Z,19.40
2023-04-30T11:24:09.830Z,19.13
2023-04-30T11:27:08.841Z,14.00
2023-04-30T11:29:36.468Z,14.68
2023-04-30T11:32:05.056Z,14.32
2023-04-30T11:34:34.516Z,16.95
2023-04-30T11:37:03.319Z,14.43
2023-04-30T11:39:35.304Z,15.65
2023-04-30T11:42:03.238Z,16.00
2023-04-30T11:44:30.334Z,14.75
2023-04-30T11:46:57.353Z,16.77
2023-04-30T11:49:24.357Z,15.90
2023-04-30T11:51:51.827Z,15.40
2023-04-30T11:54:19.660Z,17.35
2023-04-30T11:56:48.654Z,15.20
2023-04-30T11:59:16.563Z,16.45
2023-04-30T12:01:44.181Z,15.02
2023-04-30T12:04:11.556Z,15.60
2023-04-30T12:06:39.712Z,13.23
2023-04-30T12:09:09.471Z,16.63
2023-04-30T12:11:36.754Z,16.75
2023-04-30T12:14:07.484Z,16.02
2023-04-30T12:16:46.134Z,16.92
2023-04-30T12:19:13.250Z,13.40
2023-04-30T12:21:42.037Z,14.30
2023-04-30T12:24:10.855Z,16.30
2023-04-30T12:26:39.984Z,13.60
2023-04-30T12:29:18.043Z,15.48
2023-04-30T12:31:49.755Z,14.23
2023-04-30T12:34:18.497Z,13.27
2023-04-30T12:36:45.735Z,14.10
2023-04-30T12:39:16.092Z,15.65
2023-04-30T12:41:45.804Z,13.88
2023-04-30T12:44:16.567Z,13.95
2023-04-30T12:46:43.844Z,14.15
2023-04-30T12:49:11.374Z,15.50
2023-04-30T12:51:42.761Z,13.77
2023-04-30T12:54:09.897Z,14.18
2023-04-30T12:56:36.907Z,13.15
2023-04-30T12:59:03.881Z,13.82
2023-04-30T13:01:31.041Z,11.95
2023-04-30T13:03:58.496Z,15.18
2023-04-30T13:06:25.610Z,16.73
2023-04-30T13:11:22.909Z,40.40
2023-04-30T13:13:50.033Z,17.48
2023-04-30T13:16:17.301Z,13.98
2023-04-30T13:18:44.447Z,12.68
2023-04-30T13:21:12.730Z,12.48
2023-04-30T13:23:51.127Z,17.17
2023-04-30T13:26:19.467Z,13.38
2023-04-30T13:28:46.588Z,12.70
2023-04-30T13:31:13.648Z,12.35
2023-04-30T13:33:41.581Z,12.10
2023-04-30T13:36:08.784Z,14.98
2023-04-30T13:38:35.837Z,12.63
2023-04-30T13:41:02.977Z,11.27
2023-04-30T13:43:29.949Z,10.77
2023-04-30T13:45:58.555Z,11.43
2023-04-30T13:48:25.669Z,13.38
2023-04-30T13:50:52.876Z,12.68
2023-04-30T13:53:19.901Z,10.63
2023-04-30T13:55:47.131Z,12.68
2023-04-30T13:58:14.329Z,10.07
2023-04-30T14:00:41.452Z,9.48
2023-04-30T14:03:08.649Z,15.13
2023-04-30T14:05:36.655Z,12.38
2023-04-30T14:08:04.658Z,13.73
2023-04-30T14:10:32.764Z,13.85
2023-04-30T14:12:59.750Z,11.68
2023-04-30T14:15:27.665Z,12.35
2023-04-30T14:17:55.219Z,11.30
2023-04-30T14:20:22.359Z,13.25
2023-04-30T14:22:49.312Z,13.30
2023-04-30T14:25:16.494Z,10.32
2023-04-30T14:27:43.515Z,33.63
2023-04-30T14:30:11.079Z,13.95
2023-04-30T14:32:38.171Z,13.27
2023-04-30T14:35:06.045Z,10.70
2023-04-30T14:37:33.487Z,10.43
2023-04-30T14:40:01.955Z,9.55
2023-04-30T14:42:29.326Z,11.90
2023-04-30T14:44:56.377Z,10.48
2023-04-30T14:47:27.280Z,10.48
2023-04-30T14:49:54.858Z,9.15
2023-04-30T14:52:22.409Z,8.38
2023-04-30T14:54:49.443Z,9.10
2023-04-30T14:57:18.577Z,12.40
2023-04-30T14:59:45.512Z,9.57
2023-04-30T15:02:12.527Z,10.57
2023-04-30T15:04:40.027Z,8.68
2023-04-30T15:07:07.219Z,8.93
2023-04-30T15:09:34.221Z,9.52
2023-04-30T15:12:01.179Z,8.35
2023-04-30T15:14:28.107Z,8.77
2023-04-30T15:16:55.353Z,8.98
2023-04-30T15:19:22.694Z,6.53
2023-04-30T15:21:49.617Z,9.48
2023-04-30T15:24:17.940Z,6.82
2023-04-30T15:26:45.164Z,8.32
2023-04-30T15:29:12.155Z,5.47
2023-04-30T15:31:39.156Z,4.85
2023-04-30T15:34:06.103Z,5.38
2023-04-30T15:36:33.253Z,14.40
2023-04-30T15:39:00.251Z,6.38
2023-04-30T15:41:27.236Z,8.52
2023-04-30T15:43:54.317Z,5.03
2023-04-30T15:46:21.462Z,5.85
2023-04-30T15:48:48.494Z,4.38
2023-04-30T15:51:15.516Z,5.03
2023-04-30T15:53:42.488Z,4.90
2023-04-30T15:56:09.750Z,3.97
2023-04-30T15:58:36.863Z,5.03
2023-04-30T16:01:03.862Z,5.57
2023-04-30T16:03:31.584Z,4.50
2023-04-30T16:06:00.991Z,6.15
2023-04-30T16:08:28.456Z,7.57
2023-04-30T16:10:55.625Z,6.18
2023-04-30T16:13:22.581Z,8.45
2023-04-30T16:15:52.969Z,5.50
2023-04-30T16:18:19.967Z,5.40
2023-04-30T16:20:48.664Z,5.32
2023-04-30T16:23:16.670Z,4.38
2023-04-30T16:25:43.620Z,4.85
2023-04-30T16:28:10.640Z,5.47
2023-04-30T16:30:37.753Z,5.85
2023-04-30T16:33:04.734Z,4.22
2023-04-30T16:35:31.688Z,6.75
2023-04-30T16:37:58.701Z,5.03
2023-04-30T16:40:26.043Z,3.50
2023-04-30T16:42:52.964Z,6.03
2023-04-30T16:45:19.893Z,6.82
2023-04-30T16:47:48.315Z,5.65
2023-04-30T16:50:15.420Z,5.35
2023-04-30T16:52:42.662Z,5.40
2023-04-30T16:55:10.550Z,4.35
2023-04-30T16:57:37.532Z,4.75
2023-04-30T17:00:06.461Z,5.30
2023-04-30T17:02:33.648Z,7.00
2023-04-30T17:05:00.731Z,5.78
2023-04-30T17:07:27.747Z,4.13
2023-04-30T17:09:55.223Z,4.80
2023-04-30T17:12:22.320Z,4.95
2023-04-30T17:14:49.275Z,4.60
2023-04-30T17:17:16.165Z,4.35
2023-04-30T17:19:43.057Z,3.42
2023-04-30T17:22:10.032Z,6.05
2023-04-30T17:24:37.324Z,5.97
2023-04-30T17:27:05.704Z,4.57
2023-04-30T17:29:32.896Z,5.10
2023-04-30T17:31:59.809Z,4.53
2023-04-30T17:34:27.445Z,3.45
2023-04-30T17:36:54.582Z,4.05
2023-04-30T17:39:21.584Z,3.88
2023-04-30T17:41:48.944Z,3.50
2023-04-30T17:44:16.048Z,4.22
2023-04-30T17:46:43.797Z,7.32
2023-04-30T17:49:10.769Z,2.92
2023-04-30T17:51:37.903Z,5.35
2023-04-30T17:54:05.471Z,5.53
2023-04-30T17:56:33.181Z,3.65
2023-04-30T17:59:00.658Z,4.75
2023-04-30T18:01:27.867Z,4.70
2023-04-30T18:03:55.277Z,3.10
2023-04-30T18:06:22.538Z,5.72
2023-04-30T18:08:49.538Z,6.35
2023-04-30T18:11:16.639Z,3.80
2023-04-30T18:13:43.642Z,4.07
2023-04-30T18:16:10.687Z,2.95
2023-04-30T18:18:37.748Z,3.72
2023-04-30T18:21:04.867Z,4.10
2023-04-30T18:23:31.866Z,6.80
2023-04-30T18:25:58.750Z,3.92
2023-04-30T18:28:25.760Z,3.72
2023-04-30T18:30:52.791Z,5.40
2023-04-30T18:33:19.710Z,5.40
2023-04-30T18:35:50.468Z,3.53
2023-04-30T18:38:18.537Z,5.45
2023-04-30T18:40:45.442Z,5.95
2023-04-30T18:43:14.522Z,5.65
2023-04-30T18:45:41.675Z,4.10
2023-04-30T18:48:08.898Z,5.63
2023-04-30T18:50:35.901Z,4.85
2023-04-30T18:53:02.836Z,4.25
2023-04-30T18:55:29.806Z,3.40
2023-04-30T18:57:56.785Z,4.15
2023-04-30T19:00:23.850Z,3.70
2023-04-30T19:02:51.386Z,4.70
2023-04-30T19:05:19.206Z,6.72
2023-04-30T19:07:46.588Z,3.95
2023-04-30T19:10:13.608Z,16.23
2023-04-30T19:12:41.400Z,5.95
2023-04-30T19:15:11.572Z,3.80
2023-04-30T19:17:40.233Z,6.32
2023-04-30T19:20:08.205Z,6.63
2023-04-30T19:22:35.980Z,6.13
2023-04-30T19:25:03.151Z,4.05
2023-04-30T19:27:30.545Z,5.13
2023-04-30T19:29:57.962Z,5.47
2023-04-30T19:32:25.138Z,5.88
2023-04-30T19:34:52.427Z,4.43
2023-04-30T19:37:19.449Z,4.20
2023-04-30T19:39:46.468Z,5.22
2023-04-30T19:42:13.489Z,4.90
2023-04-30T19:44:40.851Z,4.88
2023-04-30T19:47:07.857Z,4.68
2023-04-30T19:49:34.980Z,4.60
2023-04-30T19:52:02.598Z,5.38
2023-04-30T19:54:29.798Z,4.57
2023-04-30T19:56:58.147Z,5.72
2023-04-30T19:59:27.366Z,5.50
2023-04-30T20:01:54.614Z,4.63
2023-04-30T20:04:22.359Z,5.03
2023-04-30T20:06:57.403Z,5.40
2023-04-30T20:09:25.069Z,5.60
2023-04-30T20:11:52.731Z,4.47
2023-04-30T20:14:20.469Z,4.40
2023-04-30T20:16:53.592Z,5.10
2023-04-30T20:19:25.870Z,4.78
2023-04-30T20:21:54.051Z,6.20
2023-04-30T20:24:22.047Z,5.72
2023-04-30T20:26:49.655Z,6.07
2023-04-30T20:29:19.045Z,5.72
2023-04-30T20:31:47.460Z,5.30
2023-04-30T20:34:14.814Z,5.32
2023-04-30T20:36:41.866Z,7.07
2023-04-30T20:39:08.966Z,6.30
2023-04-30T20:41:36.189Z,5.63
2023-04-30T20:44:03.443Z,6.05
2023-04-30T20:46:32.200Z,6.03
2023-04-30T20:49:04.237Z,7.55
2023-04-30T20:51:31.508Z,6.00
2023-04-30T20:53:58.676Z,5.95
2023-04-30T20:56:26.159Z,5.57
2023-04-30T20:58:54.497Z,6.20
2023-04-30T21:01:21.665Z,5.93
2023-04-30T21:03:49.163Z,6.97
2023-04-30T21:06:17.575Z,4.93
2023-04-30T21:08:44.675Z,5.50
2023-04-30T21:11:14.091Z,6.47
2023-04-30T21:13:41.878Z,6.47
2023-04-30T21:16:09.010Z,5.03
2023-04-30T21:18:36.585Z,7.80
2023-04-30T21:21:04.951Z,5.50
2023-04-30T21:23:32.704Z,6.63
2023-04-30T21:25:59.691Z,6.20
2023-04-30T21:28:26.842Z,6.78
2023-04-30T21:30:53.987Z,7.07
2023-04-30T21:33:21.118Z,6.30
2023-04-30T21:35:48.131Z,7.90
2023-04-30T21:38:15.255Z,6.45
2023-04-30T21:40:43.103Z,7.40
2023-04-30T21:43:10.101Z,5.75
2023-04-30T21:45:37.024Z,6.72
2023-04-30T21:48:04.227Z,6.25
2023-04-30T21:50:34.585Z,6.45
2023-04-30T21:53:03.196Z,7.93
2023-04-30T21:55:30.440Z,6.78
2023-04-30T21:58:00.254Z,7.53
2023-04-30T22:00:28.080Z,6.50
2023-04-30T22:02:55.968Z,6.38
2023-04-30T22:05:22.942Z,9.63
2023-04-30T22:07:49.883Z,6.40
2023-04-30T22:10:17.000Z,7.43
2023-04-30T22:12:47.333Z,6.25
2023-04-30T22:15:14.985Z,7.68
2023-04-30T22:17:42.226Z,5.72
2023-04-30T22:20:10.057Z,7.82
2023-04-30T22:22:37.134Z,6.38
2023-04-30T22:25:04.691Z,6.78
2023-04-30T22:27:32.092Z,6.80
2023-04-30T22:29:59.123Z,7.07
2023-04-30T22:32:26.309Z,6.70
2023-04-30T22:34:53.521Z,8.02
2023-04-30T22:37:20.448Z,7.60
2023-04-30T22:39:48.436Z,6.47
2023-04-30T22:42:15.740Z,6.63
2023-04-30T22:44:43.892Z,6.43
2023-04-30T22:47:11.076Z,6.57
2023-04-30T22:49:38.930Z,7.55
2023-04-30T22:52:07.207Z,5.93
2023-04-30T22:54:36.653Z,6.95
2023-04-30T22:57:03.852Z,7.55
2023-04-30T22:59:30.878Z,7.10
2023-04-30T23:01:57.787Z,7.90
2023-04-30T23:04:25.849Z,6.38
2023-04-30T23:06:53.175Z,7.15
2023-04-30T23:09:20.165Z,10.02
2023-04-30T23:11:48.296Z,7.10
2023-04-30T23:14:15.424Z,7.85
2023-04-30T23:16:42.843Z,7.50
2023-04-30T23:19:10.340Z,7.45
2023-04-30T23:21:37.502Z,6.32
2023-04-30T23:24:04.551Z,7.60
2023-04-30T23:26:31.699Z,5.75
2023-04-30T23:28:58.752Z,7.60
2023-04-30T23:31:25.722Z,8.85
2023-04-30T23:33:52.739Z,7.10
2023-04-30T23:36:19.738Z,6.40
2023-04-30T23:38:46.897Z,6.82
2023-04-30T23:41:14.186Z,7.55
2023-04-30T23:43:41.187Z,7.25
2023-04-30T23:46:11.495Z,7.78
2023-04-30T23:48:39.480Z,6.07
2023-04-30T23:51:08.785Z,6.60
2023-04-30T23:53:35.752Z,6.40
2023-04-30T23:56:02.925Z,6.72
2023-04-30T23:58:30.399Z,7.28
